Archival Weather

Longyear

Longyear, Svalbard (ENSB)

Report from: Tuesday, September 19, 2023 7:20 PM UTC
Current time: Wednesday, December 6, 2023 7:58 AM UTC

Current weather – Weather history – Daily summaries
Weather forecast

Temperature-3.0°C (26.6°F)
Dew point-7.0°C (19.4°F)
Winds 1 kts (0.5 m/s, 1.2 mph) Vrb
Winds variableWinds variable
Clouds Sky clear
Altimeter30.03 in.Hg (1017 mB)
Relative humidity74 %
Density altitude-2,284 ft. (-696 m)
Remarks Ceiling and visibility OK
Flight conditions Visual Meteorological Conditions
Raw dataENSB 191920Z VRB01KT CAVOK M03/M07 Q1017 RMK WIND 1400FT 28003KT
An error has occurred. This application may no longer respond until reloaded. Reload 🗙